Главная страница
METAR-TAF:

METAR-TAF

Аэропорты :

Международный аэропорт имени Ференца Листа

Будапешт, Венгрия

широта: 47-26N, долгота: 019-16E, высота над уровнем моря: 151 м

Текущие метеонаблюдения

Эта сводка был подготовлена 19 минут назад, в 01:00 UTC
Ветер 7 Узел от северный
Температура 1°C
Влажность 75%
Давление 1018 hPa
Видимость 10 км и более

METAR: LHBP 040100Z AUTO 35007KT 9999 NCD 01/M03 Q1018 NOSIG

Время: 03:19 (01:19 UTC)

Прогноз

Эта сводка был подготовлена 2 часа и 4 минут назад, в 23:15 UTC
Прогноз действительный с 04-го 00 UTC до 04-го 24 UTC
Ветер 6 Узел от северно-северо-западный
Видимость 10 км и более
Нет облачности ниже 1500 м, и нет кучево-дождевой облачности
временами
С 04-го 00 UTC до 04-го 06 UTC
Ветер 3 Узел переменных направлений
изменения
С 04-го 06 UTC до 04-го 08 UTC
Ветер 9 Узел от северо-восточный

TAF: LHBP 032315Z 0400/0424 33006KT CAVOK TEMPO 0400/0406 VRB03KT BECMG 0406/0408 04009KT

Метеонаблюдения и прогнозы для более 4000 аэропортов (сводки METAR и TAF).

Имеющиеся станции представлены на карте желтыми и красными точками.

Чтобы увидеть название станции, наведите на нее мышь.

Затем щелкните, чтобы увидеть метеонаблюдения и метеопрогнозы.

Управление картой: чтобы увеличить масштаб, щелкните зеленые кнопки с черным крестиком; чтобы уменьшить масштаб, щелкните зеленую кнопку с тире; для просмотра соседних карт щелкайте зеленые стрелки.


METAR-TAF: